createdAt,value
2018-02-02T00:00:59.470Z,3.43
2018-02-02T00:03:27.705Z,3.87
2018-02-02T00:05:56.797Z,3.50
2018-02-02T00:08:25.038Z,3.90
2018-02-02T00:10:53.282Z,4.10
2018-02-02T00:13:21.858Z,3.83
2018-02-02T00:15:50.093Z,3.80
2018-02-02T00:18:18.335Z,4.23
2018-02-02T00:20:46.689Z,5.40
2018-02-02T00:23:14.925Z,4.73
2018-02-02T00:25:43.161Z,4.50
2018-02-02T00:28:11.597Z,5.67
2018-02-02T00:30:39.846Z,4.03
2018-02-02T00:33:09.142Z,4.83
2018-02-02T00:35:37.401Z,4.60
2018-02-02T00:38:05.637Z,4.23
2018-02-02T00:40:34.641Z,3.60
2018-02-02T00:43:02.901Z,4.90
2018-02-02T00:45:31.141Z,5.10
2018-02-02T00:47:59.379Z,4.50
2018-02-02T00:50:33.337Z,4.60
2018-02-02T00:53:01.582Z,4.73
2018-02-02T00:55:29.817Z,5.00
2018-02-02T00:57:58.841Z,5.30
2018-02-02T01:00:27.181Z,5.07
2018-02-02T01:02:56.185Z,5.30
2018-02-02T01:05:29.149Z,5.73
2018-02-02T01:07:57.381Z,5.47
2018-02-02T01:10:25.618Z,5.30
2018-02-02T01:12:55.205Z,6.20
2018-02-02T01:15:23.910Z,5.40
2018-02-02T01:17:52.914Z,5.60
2018-02-02T01:20:21.945Z,5.83
2018-02-02T01:22:50.182Z,5.40
2018-02-02T01:25:18.425Z,6.50
2018-02-02T01:27:46.676Z,6.40
2018-02-02T01:30:14.921Z,6.30
2018-02-02T01:32:44.369Z,6.83
2018-02-02T01:35:12.829Z,6.73
2018-02-02T01:37:41.066Z,6.40
2018-02-02T01:40:09.301Z,6.70
2018-02-02T01:42:37.557Z,7.60
2018-02-02T01:45:05.795Z,7.30
2018-02-02T01:47:34.029Z,7.33
2018-02-02T01:50:02.296Z,6.73
2018-02-02T01:52:30.525Z,7.80
2018-02-02T01:54:59.525Z,7.20
2018-02-02T01:57:28.858Z,7.10
2018-02-02T01:59:57.094Z,6.87
2018-02-02T02:02:25.537Z,7.83
2018-02-02T02:04:53.800Z,8.60
2018-02-02T02:07:22.033Z,8.23
2018-02-02T02:09:51.060Z,8.57
2018-02-02T02:12:19.382Z,8.20
2018-02-02T02:14:47.621Z,8.83
2018-02-02T02:17:16.160Z,8.20
2018-02-02T02:19:45.496Z,8.80
2018-02-02T02:22:13.842Z,9.10
2018-02-02T02:24:42.851Z,8.77
2018-02-02T02:27:11.873Z,7.90
2018-02-02T02:29:40.113Z,8.30
2018-02-02T02:32:08.357Z,9.07
2018-02-02T02:34:37.402Z,9.10
2018-02-02T02:37:05.649Z,8.50
2018-02-02T02:39:34.669Z,8.23
2018-02-02T02:42:03.558Z,7.80
2018-02-02T02:44:31.802Z,8.73
2018-02-02T02:47:00.810Z,7.80
2018-02-02T02:49:29.077Z,8.00
2018-02-02T02:51:57.309Z,7.90
2018-02-02T02:54:25.550Z,8.60
2018-02-02T02:56:53.812Z,7.40
2018-02-02T02:59:22.054Z,9.03
2018-02-02T03:01:50.297Z,9.33
2018-02-02T03:04:18.785Z,8.50
2018-02-02T03:06:47.025Z,8.20
2018-02-02T03:09:15.269Z,9.10
2018-02-02T03:11:43.530Z,8.77
2018-02-02T03:14:11.770Z,8.23
2018-02-02T03:16:40.005Z,8.80
2018-02-02T03:19:08.733Z,9.00
2018-02-02T03:21:36.977Z,8.90
2018-02-02T03:24:05.218Z,9.20
2018-02-02T03:26:33.589Z,8.83
2018-02-02T03:29:01.825Z,8.93
2018-02-02T03:31:30.070Z,10.13
2018-02-02T03:33:58.337Z,8.33
2018-02-02T03:36:26.577Z,9.37
2018-02-02T03:38:54.825Z,8.60
2018-02-02T03:41:23.854Z,9.37
2018-02-02T03:43:52.099Z,8.40
2018-02-02T03:46:20.333Z,8.00
2018-02-02T03:48:48.997Z,8.90
2018-02-02T03:51:17.241Z,9.23
2018-02-02T03:53:45.485Z,9.20
2018-02-02T03:56:13.753Z,8.47
2018-02-02T03:58:41.985Z,8.53
2018-02-02T04:01:10.234Z,9.20
2018-02-02T04:03:39.257Z,8.90
2018-02-02T04:06:08.683Z,10.30
2018-02-02T04:08:36.914Z,8.80
2018-02-02T04:11:06.029Z,8.40
2018-02-02T04:13:34.273Z,8.53
2018-02-02T04:16:02.519Z,8.57
2018-02-02T04:18:30.777Z,8.57
2018-02-02T04:20:59.426Z,9.10
2018-02-02T04:23:28.433Z,8.87
2018-02-02T04:25:56.697Z,9.20
2018-02-02T04:28:24.945Z,9.33
2018-02-02T04:30:53.957Z,9.47
2018-02-02T04:33:22.589Z,8.40
2018-02-02T04:35:50.829Z,8.17
2018-02-02T04:38:19.069Z,9.50
2018-02-02T04:40:47.333Z,8.53
2018-02-02T04:43:15.578Z,8.60
2018-02-02T04:45:43.829Z,9.10
2018-02-02T04:48:12.865Z,9.60
2018-02-02T04:50:41.109Z,8.83
2018-02-02T04:53:09.350Z,9.90
2018-02-02T04:55:37.813Z,10.20
2018-02-02T04:58:06.057Z,9.43
2018-02-02T05:00:34.369Z,8.87
2018-02-02T05:03:02.647Z,8.70
2018-02-02T05:05:30.881Z,7.87
2018-02-02T05:07:59.114Z,7.80
2018-02-02T05:10:27.373Z,7.77
2018-02-02T05:12:55.613Z,6.80
2018-02-02T05:15:23.853Z,6.10
2018-02-02T05:17:53.125Z,4.70
2018-02-02T05:20:21.346Z,4.80
2018-02-02T05:22:50.125Z,4.63
2018-02-02T05:25:18.385Z,5.73
2018-02-02T05:27:46.850Z,4.77
2018-02-02T05:30:15.086Z,5.00
2018-02-02T05:32:43.350Z,5.67
2018-02-02T05:35:12.363Z,6.83
2018-02-02T05:37:40.718Z,5.90
2018-02-02T05:40:10.089Z,8.07
2018-02-02T05:42:38.301Z,6.70
2018-02-02T05:45:06.545Z,6.00
2018-02-02T05:47:34.813Z,6.60
2018-02-02T05:50:03.049Z,6.60
2018-02-02T05:52:31.289Z,6.43
2018-02-02T05:55:00.317Z,6.37
2018-02-02T05:57:28.562Z,6.77
2018-02-02T05:59:56.800Z,5.50
2018-02-02T06:02:25.470Z,4.83
2018-02-02T06:04:53.765Z,4.90
2018-02-02T06:07:22.001Z,5.30
2018-02-02T06:09:50.269Z,5.33
2018-02-02T06:12:19.270Z,5.17
2018-02-02T06:14:48.269Z,5.43
2018-02-02T06:17:16.533Z,4.73
2018-02-02T06:19:44.769Z,5.23
2018-02-02T06:22:13.006Z,4.87
2018-02-02T06:24:41.807Z,4.77
2018-02-02T06:27:10.045Z,5.27
2018-02-02T06:29:38.285Z,5.20
2018-02-02T06:32:06.550Z,3.40
2018-02-02T06:34:34.830Z,3.57
2018-02-02T06:37:04.849Z,4.57
2018-02-02T06:39:33.116Z,5.47
2018-02-02T06:42:01.348Z,5.27
2018-02-02T06:44:30.349Z,4.53
2018-02-02T06:46:59.682Z,5.50
2018-02-02T06:49:27.921Z,5.73
2018-02-02T06:51:56.157Z,6.40
2018-02-02T06:54:24.445Z,5.40
2018-02-02T06:56:52.698Z,4.23
2018-02-02T06:59:20.926Z,4.90
2018-02-02T07:01:49.957Z,6.50
2018-02-02T07:04:18.185Z,5.07
2018-02-02T07:06:46.420Z,4.93
2018-02-02T07:09:15.091Z,3.23
2018-02-02T07:11:43.330Z,4.70
2018-02-02T07:14:11.565Z,4.50
2018-02-02T07:16:40.226Z,5.17
2018-02-02T07:19:08.460Z,6.17
2018-02-02T07:21:36.701Z,5.20
2018-02-02T07:24:04.974Z,4.80
2018-02-02T07:26:33.406Z,4.97
2018-02-02T07:29:02.413Z,5.63
2018-02-02T07:31:30.862Z,5.80
2018-02-02T07:33:59.100Z,5.63
2018-02-02T07:36:27.346Z,5.07
2018-02-02T07:38:55.622Z,4.80
2018-02-02T07:41:23.861Z,5.10
2018-02-02T07:43:52.213Z,5.50
2018-02-02T07:46:20.454Z,4.40
2018-02-02T07:48:48.706Z,5.00
2018-02-02T07:51:16.949Z,5.37
2018-02-02T07:53:45.509Z,3.93
2018-02-02T07:56:13.741Z,4.40
2018-02-02T07:58:41.974Z,4.00
2018-02-02T08:01:15.757Z,4.03
2018-02-02T08:03:43.997Z,4.43
2018-02-02T08:06:12.997Z,4.80
2018-02-02T08:08:42.026Z,4.50
2018-02-02T08:11:10.262Z,4.10
2018-02-02T08:13:38.497Z,3.87
2018-02-02T08:16:07.166Z,3.67
2018-02-02T08:18:35.461Z,3.60
2018-02-02T08:21:03.701Z,2.50
2018-02-02T08:23:31.959Z,4.00
2018-02-02T08:26:00.972Z,4.17
2018-02-02T08:28:29.369Z,4.73
2018-02-02T08:30:58.484Z,3.20
2018-02-02T08:33:26.773Z,3.50
2018-02-02T08:35:55.010Z,3.60
2018-02-02T08:38:23.427Z,4.23
2018-02-02T08:40:51.662Z,4.20
2018-02-02T08:43:19.901Z,4.10
2018-02-02T08:45:48.157Z,4.57
2018-02-02T08:48:16.405Z,4.33
2018-02-02T08:50:44.641Z,3.67
2018-02-02T08:53:12.910Z,4.30
2018-02-02T08:55:41.152Z,4.43
2018-02-02T08:58:09.393Z,4.07
2018-02-02T09:00:37.993Z,4.10
2018-02-02T09:03:06.230Z,4.10
2018-02-02T09:05:34.569Z,4.40
2018-02-02T09:08:02.810Z,4.10
2018-02-02T09:10:31.081Z,3.80
2018-02-02T09:12:59.325Z,4.80
2018-02-02T09:15:28.529Z,4.77
2018-02-02T09:17:57.529Z,4.43
2018-02-02T09:20:26.545Z,4.07
2018-02-02T09:22:54.941Z,4.27
2018-02-02T09:25:23.180Z,3.83
2018-02-02T09:27:50.934Z,4.50
2018-02-02T09:30:19.761Z,5.40
2018-02-02T09:32:47.996Z,5.50
2018-02-02T09:35:16.349Z,5.07
2018-02-02T09:37:44.593Z,3.87
2018-02-02T09:40:12.837Z,4.23
2018-02-02T09:42:41.602Z,4.00
2018-02-02T09:45:10.358Z,4.43
2018-02-02T09:47:38.593Z,3.87
2018-02-02T09:50:06.842Z,4.67
2018-02-02T09:52:35.309Z,4.53
2018-02-02T09:55:03.525Z,5.20
2018-02-02T09:57:32.543Z,3.97
2018-02-02T10:00:00.818Z,4.43
2018-02-02T10:02:29.049Z,4.10
2018-02-02T10:04:58.249Z,4.50
2018-02-02T10:07:26.811Z,4.30
2018-02-02T10:09:55.397Z,3.97
2018-02-02T10:12:23.810Z,3.57
2018-02-02T10:14:52.834Z,4.27
2018-02-02T10:17:21.069Z,4.07
2018-02-02T10:19:49.305Z,4.20
2018-02-02T10:22:17.570Z,4.17
2018-02-02T10:24:47.192Z,5.10
2018-02-02T10:27:15.413Z,3.67
2018-02-02T10:29:44.256Z,4.33
2018-02-02T10:32:13.830Z,3.70
2018-02-02T10:34:44.228Z,3.80
2018-02-02T10:37:13.124Z,3.30
2018-02-02T10:39:43.237Z,4.23
2018-02-02T10:42:11.928Z,4.17
2018-02-02T10:44:40.186Z,4.43
2018-02-02T10:47:08.411Z,3.47
2018-02-02T10:49:37.425Z,4.07
2018-02-02T10:52:06.117Z,3.40
2018-02-02T10:54:34.353Z,3.60
2018-02-02T10:57:02.601Z,3.67
2018-02-02T10:59:30.849Z,3.57
2018-02-02T11:02:04.668Z,3.37
2018-02-02T11:04:32.926Z,3.80
2018-02-02T11:07:01.198Z,3.70
2018-02-02T11:09:29.578Z,2.90
2018-02-02T11:11:58.083Z,3.73
2018-02-02T11:14:26.306Z,3.30
2018-02-02T11:16:54.548Z,3.77
2018-02-02T11:19:22.805Z,3.60
2018-02-02T11:21:54.021Z,3.27
2018-02-02T11:24:22.257Z,3.67
2018-02-02T11:26:50.536Z,3.40
2018-02-02T11:29:18.765Z,4.00
2018-02-02T11:31:47.001Z,3.50
2018-02-02T11:34:16.246Z,3.90
2018-02-02T11:36:44.554Z,4.50
2018-02-02T11:39:12.781Z,3.30
2018-02-02T11:41:41.041Z,4.03
2018-02-02T11:44:10.041Z,3.27
2018-02-02T11:46:38.280Z,3.27
2018-02-02T11:49:06.536Z,4.30
2018-02-02T11:51:34.779Z,3.60
2018-02-02T11:54:03.007Z,4.37
2018-02-02T11:56:31.350Z,3.90
2018-02-02T11:58:59.572Z,3.37
2018-02-02T12:01:27.797Z,4.27
2018-02-02T12:03:56.057Z,3.00
2018-02-02T12:06:24.302Z,3.70
2018-02-02T12:08:52.542Z,4.80
2018-02-02T12:11:20.806Z,3.97
2018-02-02T12:13:49.042Z,4.60
2018-02-02T12:16:18.049Z,4.57
2018-02-02T12:18:47.500Z,3.80
2018-02-02T12:21:15.717Z,4.30
2018-02-02T12:23:50.566Z,4.73
2018-02-02T12:26:34.458Z,4.30
2018-02-02T12:29:18.402Z,4.93
2018-02-02T12:31:59.527Z,5.27
2018-02-02T12:34:43.517Z,4.80
2018-02-02T12:37:11.742Z,4.53
2018-02-02T12:39:40.740Z,5.07
2018-02-02T12:42:09.038Z,5.20
2018-02-02T12:44:37.648Z,4.40
2018-02-02T12:47:06.026Z,4.63
2018-02-02T12:49:35.106Z,3.83
2018-02-02T12:52:03.342Z,3.83
2018-02-02T12:54:31.641Z,4.87
2018-02-02T12:57:00.601Z,4.97
2018-02-02T12:59:29.605Z,5.87
2018-02-02T13:01:58.643Z,6.17
2018-02-02T13:04:27.637Z,6.67
2018-02-02T13:06:55.873Z,4.47
2018-02-02T13:09:24.105Z,5.40
2018-02-02T13:11:52.366Z,4.90
2018-02-02T13:14:20.602Z,4.13
2018-02-02T13:16:48.838Z,4.17
2018-02-02T13:19:17.153Z,4.60
2018-02-02T13:21:45.393Z,5.27
2018-02-02T13:24:13.681Z,5.30
2018-02-02T13:26:41.901Z,4.57
2018-02-02T13:29:10.140Z,5.80
2018-02-02T13:31:38.378Z,5.27
2018-02-02T13:34:10.582Z,3.67
2018-02-02T13:36:39.249Z,4.50
2018-02-02T13:39:07.498Z,4.97
2018-02-02T13:41:36.091Z,4.13
2018-02-02T13:44:04.322Z,5.13
2018-02-02T13:46:32.561Z,5.53
2018-02-02T13:49:00.821Z,3.90
2018-02-02T13:51:29.070Z,5.53
2018-02-02T13:53:57.729Z,5.00
2018-02-02T13:56:25.992Z,4.00
2018-02-02T13:58:54.241Z,5.07
2018-02-02T14:01:22.461Z,4.40
2018-02-02T14:03:51.819Z,4.40
2018-02-02T14:06:20.042Z,4.70
2018-02-02T14:08:48.284Z,3.30
2018-02-02T14:11:16.541Z,4.90
2018-02-02T14:13:44.781Z,4.50
2018-02-02T14:16:13.018Z,4.70
2018-02-02T14:18:41.549Z,4.60
2018-02-02T14:21:09.787Z,4.83
2018-02-02T14:23:38.140Z,4.30
2018-02-02T14:26:06.613Z,4.20
2018-02-02T14:28:34.861Z,5.20
2018-02-02T14:31:03.114Z,4.23
2018-02-02T14:33:31.378Z,4.13
2018-02-02T14:35:59.625Z,5.73
2018-02-02T14:38:28.150Z,4.50
2018-02-02T14:40:57.182Z,4.67
2018-02-02T14:43:25.426Z,4.07
2018-02-02T14:45:53.657Z,3.83
2018-02-02T14:48:22.317Z,4.47
2018-02-02T14:50:50.662Z,3.63
2018-02-02T14:53:19.661Z,4.13
2018-02-02T14:55:48.726Z,4.30
2018-02-02T14:58:16.949Z,4.20
2018-02-02T15:00:45.191Z,5.10
2018-02-02T15:03:13.449Z,3.70
2018-02-02T15:05:41.691Z,4.20
2018-02-02T15:08:09.922Z,3.50
2018-02-02T15:10:38.354Z,4.77
2018-02-02T15:13:06.591Z,4.90
2018-02-02T15:15:34.821Z,4.70
2018-02-02T15:18:03.081Z,4.20
2018-02-02T15:20:31.358Z,4.80
2018-02-02T15:23:00.294Z,3.80
2018-02-02T15:25:28.550Z,4.90
2018-02-02T15:27:56.789Z,4.60
2018-02-02T15:30:25.031Z,4.30
2018-02-02T15:32:53.580Z,4.90
2018-02-02T15:35:21.802Z,4.50
2018-02-02T15:37:50.818Z,5.13
2018-02-02T15:40:19.302Z,5.00
2018-02-02T15:42:47.544Z,5.00
2018-02-02T15:45:15.785Z,5.23
2018-02-02T15:47:44.170Z,4.83
2018-02-02T15:50:12.391Z,4.97
2018-02-02T15:52:42.565Z,5.13
2018-02-02T15:55:11.452Z,5.17
2018-02-02T15:57:39.832Z,4.40
2018-02-02T16:00:08.045Z,4.77
2018-02-02T16:02:37.071Z,3.90
2018-02-02T16:05:05.312Z,4.77
2018-02-02T16:07:33.661Z,4.23
2018-02-02T16:10:02.174Z,3.90
2018-02-02T16:12:30.415Z,4.53
2018-02-02T16:14:58.654Z,5.03
2018-02-02T16:17:27.182Z,4.10
2018-02-02T16:19:56.778Z,4.73
2018-02-02T16:22:24.993Z,4.73
2018-02-02T16:24:54.036Z,4.30
2018-02-02T16:27:22.265Z,4.47
2018-02-02T16:29:50.910Z,4.80
2018-02-02T16:32:20.664Z,5.17
2018-02-02T16:34:49.657Z,4.87
2018-02-02T16:37:18.812Z,6.20
2018-02-02T16:39:47.686Z,5.70
2018-02-02T16:42:15.989Z,4.53
2018-02-02T16:44:45.290Z,5.30
2018-02-02T16:47:17.686Z,5.30
2018-02-02T16:49:46.042Z,5.77
2018-02-02T16:52:14.425Z,5.70
2018-02-02T16:54:42.694Z,4.50
2018-02-02T16:57:11.118Z,4.70
2018-02-02T16:59:39.383Z,5.17
2018-02-02T17:02:07.777Z,5.40
2018-02-02T17:04:36.018Z,5.77
2018-02-02T17:07:05.622Z,5.40
2018-02-02T17:09:34.022Z,5.00
2018-02-02T17:12:02.377Z,3.50
2018-02-02T17:14:32.605Z,6.03
2018-02-02T17:17:01.054Z,4.90
2018-02-02T17:19:30.013Z,3.77
2018-02-02T17:21:58.274Z,4.77
2018-02-02T17:24:27.117Z,4.50
2018-02-02T17:26:55.353Z,4.27
2018-02-02T17:29:23.601Z,5.20
2018-02-02T17:31:51.894Z,5.23
2018-02-02T17:34:20.899Z,6.07
2018-02-02T17:36:49.905Z,6.03
2018-02-02T17:39:18.933Z,6.50
2018-02-02T17:41:47.569Z,6.80
2018-02-02T17:44:16.567Z,6.37
2018-02-02T17:46:45.650Z,6.93
2018-02-02T17:49:13.888Z,6.10
2018-02-02T17:51:42.130Z,6.73
2018-02-02T17:54:10.392Z,4.60
2018-02-02T17:56:39.394Z,6.07
2018-02-02T17:59:07.630Z,4.37
2018-02-02T18:01:50.754Z,6.20
2018-02-02T18:04:18.993Z,6.90
2018-02-02T18:06:47.235Z,6.27
2018-02-02T18:09:15.501Z,4.83
2018-02-02T18:11:44.510Z,7.07
2018-02-02T18:14:12.741Z,7.50
2018-02-02T18:16:41.006Z,6.70
2018-02-02T18:19:09.234Z,6.93
2018-02-02T18:21:38.246Z,8.70
2018-02-02T18:24:06.953Z,7.60
2018-02-02T18:26:35.239Z,7.13
2018-02-02T18:29:03.482Z,8.60
2018-02-02T18:31:31.749Z,7.00
2018-02-02T18:34:00.757Z,7.70
2018-02-02T18:36:29.085Z,7.63
2018-02-02T18:38:57.658Z,7.50
2018-02-02T18:41:25.879Z,7.10
2018-02-02T18:43:55.170Z,7.23
2018-02-02T18:46:24.525Z,8.70
2018-02-02T18:48:52.769Z,8.33
2018-02-02T18:51:21.013Z,7.87
2018-02-02T18:53:49.278Z,6.63
2018-02-02T18:56:17.525Z,8.43
2018-02-02T18:58:45.765Z,7.40
2018-02-02T19:01:14.794Z,7.47
2018-02-02T19:03:43.025Z,7.40
2018-02-02T19:06:11.262Z,7.63
2018-02-02T19:08:39.934Z,7.87
2018-02-02T19:11:08.233Z,7.63
2018-02-02T19:13:36.502Z,7.53
2018-02-02T19:16:04.770Z,7.90
2018-02-02T19:18:33.346Z,8.50
2018-02-02T19:21:01.574Z,7.80
2018-02-02T19:23:29.841Z,9.27
2018-02-02T19:25:58.077Z,8.37
2018-02-02T19:28:26.314Z,8.40
2018-02-02T19:30:55.684Z,8.27
2018-02-02T19:33:23.921Z,7.80
2018-02-02T19:35:52.325Z,6.90
2018-02-02T19:38:20.587Z,7.47
2018-02-02T19:40:48.829Z,7.67
2018-02-02T19:43:17.837Z,6.10
2018-02-02T19:45:46.513Z,5.67
2018-02-02T19:48:14.749Z,6.30
2018-02-02T19:50:42.981Z,8.60
2018-02-02T19:53:11.629Z,7.70
2018-02-02T19:55:39.871Z,8.27
2018-02-02T19:58:08.109Z,7.77
2018-02-02T20:00:36.385Z,7.70
2018-02-02T20:03:04.633Z,11.70
2018-02-02T20:05:32.875Z,8.50
2018-02-02T20:08:01.142Z,5.83
2018-02-02T20:10:29.374Z,5.90
2018-02-02T20:12:58.382Z,8.53
2018-02-02T20:15:26.789Z,7.20
2018-02-02T20:17:55.032Z,8.23
2018-02-02T20:20:23.269Z,8.10
2018-02-02T20:22:51.574Z,7.23
2018-02-02T20:25:20.589Z,9.53
2018-02-02T20:27:48.833Z,8.20
2018-02-02T20:30:17.121Z,7.17
2018-02-02T20:32:45.360Z,7.57
2018-02-02T20:35:13.606Z,7.60
2018-02-02T20:37:42.628Z,8.47
2018-02-02T20:40:10.852Z,8.73
2018-02-02T20:42:39.861Z,7.77
2018-02-02T20:45:08.124Z,8.07
2018-02-02T20:47:36.598Z,7.30
2018-02-02T20:50:05.606Z,6.10
2018-02-02T20:52:34.027Z,7.67
2018-02-02T20:55:02.266Z,6.03
2018-02-02T20:57:30.501Z,7.40
2018-02-02T20:59:59.145Z,6.17
2018-02-02T21:05:02.414Z,8.70
2018-02-02T21:07:30.654Z,8.90
2018-02-02T21:09:58.894Z,7.40
2018-02-02T21:12:27.166Z,7.80
2018-02-02T21:14:56.165Z,8.07
2018-02-02T21:17:24.405Z,8.33
2018-02-02T21:19:52.941Z,7.40
2018-02-02T21:22:21.182Z,7.73
2018-02-02T21:24:49.654Z,7.93
2018-02-02T21:27:18.682Z,7.87
2018-02-02T21:29:46.917Z,5.77
2018-02-02T21:32:15.161Z,10.67
2018-02-02T21:34:43.434Z,9.20
2018-02-02T21:37:11.673Z,7.10
2018-02-02T21:39:40.098Z,7.77
2018-02-02T21:42:08.785Z,7.50
2018-02-02T21:44:37.006Z,8.10
2018-02-02T21:47:06.033Z,8.00
2018-02-02T21:49:34.530Z,6.80
2018-02-02T21:52:02.769Z,6.77
2018-02-02T21:54:31.291Z,7.87
2018-02-02T21:56:59.534Z,7.40
2018-02-02T21:59:27.769Z,5.10
2018-02-02T22:01:56.005Z,7.20
2018-02-02T22:04:24.429Z,5.90
2018-02-02T22:06:52.671Z,8.43
2018-02-02T22:09:20.911Z,8.27
2018-02-02T22:11:49.174Z,4.90
2018-02-02T22:14:18.186Z,5.23
2018-02-02T22:16:46.426Z,7.40
2018-02-02T22:19:14.701Z,9.03
2018-02-02T22:21:43.774Z,8.20
2018-02-02T22:24:11.990Z,6.33
2018-02-02T22:26:41.333Z,7.20
2018-02-02T22:29:09.585Z,8.37
2018-02-02T22:31:37.891Z,7.60
2018-02-02T22:34:06.145Z,8.77
2018-02-02T22:36:34.416Z,6.83
2018-02-02T22:39:02.653Z,6.53
2018-02-02T22:41:31.037Z,7.20
2018-02-02T22:43:59.257Z,6.47
2018-02-02T22:46:27.501Z,6.87
2018-02-02T22:48:55.840Z,8.97
2018-02-02T22:51:24.457Z,7.60
2018-02-02T22:53:52.702Z,6.90
2018-02-02T22:56:20.965Z,6.30
2018-02-02T22:58:49.201Z,6.60
2018-02-02T23:01:17.437Z,6.60
2018-02-02T23:03:45.705Z,7.67
2018-02-02T23:06:13.943Z,7.40
2018-02-02T23:08:42.194Z,3.80
2018-02-02T23:11:10.934Z,7.30
2018-02-02T23:13:39.164Z,5.90
2018-02-02T23:16:07.406Z,6.47
2018-02-02T23:18:35.717Z,6.40
2018-02-02T23:21:04.722Z,8.27
2018-02-02T23:23:35.821Z,7.77
2018-02-02T23:26:04.117Z,5.97
2018-02-02T23:28:32.353Z,13.13
2018-02-02T23:31:00.600Z,6.50
2018-02-02T23:33:29.227Z,5.30
2018-02-02T23:35:57.441Z,5.43
2018-02-02T23:38:26.447Z,6.40
2018-02-02T23:40:55.495Z,5.47
2018-02-02T23:43:23.714Z,6.03
2018-02-02T23:45:51.956Z,5.73
2018-02-02T23:48:20.209Z,5.77
2018-02-02T23:50:48.458Z,7.80
2018-02-02T23:53:17.026Z,6.90
2018-02-02T23:55:46.361Z,17.37
2018-02-02T23:58:14.610Z,11.40
